sensor_id;sensor_type;location;lat;lon;timestamp;temperature;humidity
3005;DHT22;1512;51.486;6.610;2023-11-22T00:02:58;6.70;99.90
3005;DHT22;1512;51.486;6.610;2023-11-22T00:07:07;6.60;99.90
3005;DHT22;1512;51.486;6.610;2023-11-22T00:11:16;6.60;99.90
3005;DHT22;1512;51.486;6.610;2023-11-22T00:15:24;6.50;99.90
3005;DHT22;1512;51.486;6.610;2023-11-22T00:19:33;6.50;99.90
3005;DHT22;1512;51.486;6.610;2023-11-22T00:23:42;6.30;99.90
3005;DHT22;1512;51.486;6.610;2023-11-22T00:27:50;6.30;99.90
3005;DHT22;1512;51.486;6.610;2023-11-22T00:31:59;6.30;99.90
3005;DHT22;1512;51.486;6.610;2023-11-22T00:36:08;6.10;99.90
3005;DHT22;1512;51.486;6.610;2023-11-22T00:40:17;6.10;99.90
3005;DHT22;1512;51.486;6.610;2023-11-22T00:44:25;6.00;99.90
3005;DHT22;1512;51.486;6.610;2023-11-22T00:48:34;6.00;99.90
3005;DHT22;1512;51.486;6.610;2023-11-22T00:52:43;5.90;99.90
3005;DHT22;1512;51.486;6.610;2023-11-22T00:56:52;5.90;99.90
3005;DHT22;1512;51.486;6.610;2023-11-22T01:01:01;5.80;99.90
3005;DHT22;1512;51.486;6.610;2023-11-22T01:05:09;5.70;99.90
3005;DHT22;1512;51.486;6.610;2023-11-22T01:09:22;5.50;99.90
3005;DHT22;1512;51.486;6.610;2023-11-22T01:13:31;5.40;99.90
3005;DHT22;1512;51.486;6.610;2023-11-22T01:17:40;5.30;99.90
3005;DHT22;1512;51.486;6.610;2023-11-22T01:21:49;5.30;99.90
3005;DHT22;1512;51.486;6.610;2023-11-22T01:25:58;5.20;99.90
3005;DHT22;1512;51.486;6.610;2023-11-22T01:30:07;5.20;99.90
3005;DHT22;1512;51.486;6.610;2023-11-22T01:34:16;5.10;99.90
3005;DHT22;1512;51.486;6.610;2023-11-22T01:38:24;5.10;99.90
3005;DHT22;1512;51.486;6.610;2023-11-22T01:42:33;5.00;99.90
3005;DHT22;1512;51.486;6.610;2023-11-22T01:46:43;5.00;99.90
3005;DHT22;1512;51.486;6.610;2023-11-22T01:50:52;5.00;99.90
3005;DHT22;1512;51.486;6.610;2023-11-22T01:55:02;5.00;99.90
3005;DHT22;1512;51.486;6.610;2023-11-22T01:59:14;5.00;99.90
3005;DHT22;1512;51.486;6.610;2023-11-22T02:03:22;5.00;99.90
3005;DHT22;1512;51.486;6.610;2023-11-22T02:07:32;4.90;99.90
3005;DHT22;1512;51.486;6.610;2023-11-22T02:11:41;5.00;99.90
3005;DHT22;1512;51.486;6.610;2023-11-22T02:15:54;5.00;99.90
3005;DHT22;1512;51.486;6.610;2023-11-22T02:20:04;5.10;99.90
3005;DHT22;1512;51.486;6.610;2023-11-22T02:24:14;5.10;99.90
3005;DHT22;1512;51.486;6.610;2023-11-22T02:28:23;5.00;99.90
3005;DHT22;1512;51.486;6.610;2023-11-22T02:32:32;4.90;99.90
3005;DHT22;1512;51.486;6.610;2023-11-22T02:36:42;4.90;99.90
3005;DHT22;1512;51.486;6.610;2023-11-22T02:40:53;4.90;99.90
3005;DHT22;1512;51.486;6.610;2023-11-22T02:45:02;4.90;99.90
3005;DHT22;1512;51.486;6.610;2023-11-22T02:49:12;4.80;99.90
3005;DHT22;1512;51.486;6.610;2023-11-22T02:53:21;4.60;99.90
3005;DHT22;1512;51.486;6.610;2023-11-22T02:57:30;4.50;99.90
3005;DHT22;1512;51.486;6.610;2023-11-22T03:01:58;4.40;99.90
3005;DHT22;1512;51.486;6.610;2023-11-22T03:06:26;4.20;99.90
3005;DHT22;1512;51.486;6.610;2023-11-22T03:10:43;4.10;99.90
3005;DHT22;1512;51.486;6.610;2023-11-22T03:14:55;4.10;99.90
3005;DHT22;1512;51.486;6.610;2023-11-22T03:19:06;4.10;99.90
3005;DHT22;1512;51.486;6.610;2023-11-22T03:23:15;4.00;99.90
3005;DHT22;1512;51.486;6.610;2023-11-22T03:27:24;4.10;99.90
3005;DHT22;1512;51.486;6.610;2023-11-22T03:31:34;4.20;99.90
3005;DHT22;1512;51.486;6.610;2023-11-22T03:35:42;4.30;99.90
3005;DHT22;1512;51.486;6.610;2023-11-22T03:39:51;4.40;99.90
3005;DHT22;1512;51.486;6.610;2023-11-22T03:44:00;4.30;99.90
3005;DHT22;1512;51.486;6.610;2023-11-22T03:48:09;4.30;99.90
3005;DHT22;1512;51.486;6.610;2023-11-22T03:52:18;4.30;99.90
3005;DHT22;1512;51.486;6.610;2023-11-22T03:56:26;4.40;99.90
3005;DHT22;1512;51.486;6.610;2023-11-22T04:00:35;4.30;99.90
3005;DHT22;1512;51.486;6.610;2023-11-22T04:04:44;4.30;99.90
3005;DHT22;1512;51.486;6.610;2023-11-22T04:08:53;4.20;99.90
3005;DHT22;1512;51.486;6.610;2023-11-22T04:13:01;4.10;99.90
3005;DHT22;1512;51.486;6.610;2023-11-22T04:17:10;3.90;99.90
3005;DHT22;1512;51.486;6.610;2023-11-22T04:21:39;3.80;99.90
3005;DHT22;1512;51.486;6.610;2023-11-22T04:25:48;3.80;99.90
3005;DHT22;1512;51.486;6.610;2023-11-22T04:29:57;3.90;99.90
3005;DHT22;1512;51.486;6.610;2023-11-22T04:34:05;4.00;99.90
3005;DHT22;1512;51.486;6.610;2023-11-22T04:38:14;4.00;99.90
3005;DHT22;1512;51.486;6.610;2023-11-22T04:42:23;4.00;99.90
3005;DHT22;1512;51.486;6.610;2023-11-22T04:46:51;3.90;99.90
3005;DHT22;1512;51.486;6.610;2023-11-22T04:51:00;3.90;99.90
3005;DHT22;1512;51.486;6.610;2023-11-22T04:55:09;3.70;99.90
3005;DHT22;1512;51.486;6.610;2023-11-22T04:59:17;3.70;99.90
3005;DHT22;1512;51.486;6.610;2023-11-22T05:03:26;3.70;99.90
3005;DHT22;1512;51.486;6.610;2023-11-22T05:07:35;3.80;99.90
3005;DHT22;1512;51.486;6.610;2023-11-22T05:11:43;3.90;99.90
3005;DHT22;1512;51.486;6.610;2023-11-22T05:15:55;3.80;99.90
3005;DHT22;1512;51.486;6.610;2023-11-22T05:20:04;3.80;99.90
3005;DHT22;1512;51.486;6.610;2023-11-22T05:24:15;3.90;99.90
3005;DHT22;1512;51.486;6.610;2023-11-22T05:28:23;3.90;99.90
3005;DHT22;1512;51.486;6.610;2023-11-22T05:32:32;3.90;99.90
3005;DHT22;1512;51.486;6.610;2023-11-22T05:36:41;3.90;99.90
3005;DHT22;1512;51.486;6.610;2023-11-22T05:41:09;3.90;99.90
3005;DHT22;1512;51.486;6.610;2023-11-22T05:45:17;3.80;99.90
3005;DHT22;1512;51.486;6.610;2023-11-22T05:49:26;3.80;99.90
3005;DHT22;1512;51.486;6.610;2023-11-22T05:53:36;3.80;99.90
3005;DHT22;1512;51.486;6.610;2023-11-22T05:57:45;3.80;99.90
3005;DHT22;1512;51.486;6.610;2023-11-22T06:01:53;3.80;99.90
3005;DHT22;1512;51.486;6.610;2023-11-22T06:06:02;3.70;99.90
3005;DHT22;1512;51.486;6.610;2023-11-22T06:10:11;3.70;99.90
3005;DHT22;1512;51.486;6.610;2023-11-22T06:14:21;3.60;99.90
3005;DHT22;1512;51.486;6.610;2023-11-22T06:18:30;3.60;99.90
3005;DHT22;1512;51.486;6.610;2023-11-22T06:22:39;3.50;99.90
3005;DHT22;1512;51.486;6.610;2023-11-22T06:26:49;3.50;99.90
3005;DHT22;1512;51.486;6.610;2023-11-22T06:30:58;3.40;99.90
3005;DHT22;1512;51.486;6.610;2023-11-22T06:35:07;3.40;99.90
3005;DHT22;1512;51.486;6.610;2023-11-22T06:39:16;3.30;99.90
3005;DHT22;1512;51.486;6.610;2023-11-22T06:43:25;3.30;99.90
3005;DHT22;1512;51.486;6.610;2023-11-22T06:47:33;3.20;99.90
3005;DHT22;1512;51.486;6.610;2023-11-22T06:51:42;3.20;99.90
3005;DHT22;1512;51.486;6.610;2023-11-22T06:55:51;3.20;99.90
3005;DHT22;1512;51.486;6.610;2023-11-22T06:59:59;3.10;99.90
3005;DHT22;1512;51.486;6.610;2023-11-22T07:04:10;3.00;99.90
3005;DHT22;1512;51.486;6.610;2023-11-22T07:08:19;3.00;99.90
3005;DHT22;1512;51.486;6.610;2023-11-22T07:12:29;3.00;99.90
3005;DHT22;1512;51.486;6.610;2023-11-22T07:16:38;3.00;99.90
3005;DHT22;1512;51.486;6.610;2023-11-22T07:20:46;3.10;99.90
3005;DHT22;1512;51.486;6.610;2023-11-22T07:24:56;3.20;99.90
3005;DHT22;1512;51.486;6.610;2023-11-22T07:29:06;3.20;99.90
3005;DHT22;1512;51.486;6.610;2023-11-22T07:33:15;3.20;99.90
3005;DHT22;1512;51.486;6.610;2023-11-22T07:37:23;3.20;99.90
3005;DHT22;1512;51.486;6.610;2023-11-22T07:41:32;3.20;99.90
3005;DHT22;1512;51.486;6.610;2023-11-22T07:45:42;3.30;99.90
3005;DHT22;1512;51.486;6.610;2023-11-22T07:49:51;3.20;99.90
3005;DHT22;1512;51.486;6.610;2023-11-22T07:54:00;3.10;99.90
3005;DHT22;1512;51.486;6.610;2023-11-22T07:58:28;3.20;99.90
3005;DHT22;1512;51.486;6.610;2023-11-22T08:02:38;3.20;99.90
3005;DHT22;1512;51.486;6.610;2023-11-22T08:06:47;3.30;99.90
3005;DHT22;1512;51.486;6.610;2023-11-22T08:10:56;3.30;99.90
3005;DHT22;1512;51.486;6.610;2023-11-22T08:15:05;3.40;99.90
3005;DHT22;1512;51.486;6.610;2023-11-22T08:19:16;3.40;99.90
3005;DHT22;1512;51.486;6.610;2023-11-22T08:23:24;3.40;99.90
3005;DHT22;1512;51.486;6.610;2023-11-22T08:27:34;3.50;99.90
3005;DHT22;1512;51.486;6.610;2023-11-22T08:31:42;3.50;99.90
3005;DHT22;1512;51.486;6.610;2023-11-22T08:35:53;3.50;99.90
3005;DHT22;1512;51.486;6.610;2023-11-22T08:40:04;3.60;99.90
3005;DHT22;1512;51.486;6.610;2023-11-22T08:44:13;3.70;99.90
3005;DHT22;1512;51.486;6.610;2023-11-22T08:48:22;3.80;99.90
3005;DHT22;1512;51.486;6.610;2023-11-22T08:52:31;3.90;99.90
3005;DHT22;1512;51.486;6.610;2023-11-22T08:56:40;4.00;99.90
3005;DHT22;1512;51.486;6.610;2023-11-22T09:00:50;4.00;99.90
3005;DHT22;1512;51.486;6.610;2023-11-22T09:04:58;4.10;99.90
3005;DHT22;1512;51.486;6.610;2023-11-22T09:09:08;4.20;99.90
3005;DHT22;1512;51.486;6.610;2023-11-22T09:13:17;4.30;99.90
3005;DHT22;1512;51.486;6.610;2023-11-22T09:17:27;4.30;99.90
3005;DHT22;1512;51.486;6.610;2023-11-22T09:21:35;4.40;99.90
3005;DHT22;1512;51.486;6.610;2023-11-22T09:25:44;4.50;99.90
3005;DHT22;1512;51.486;6.610;2023-11-22T09:29:53;4.50;99.90
3005;DHT22;1512;51.486;6.610;2023-11-22T09:34:02;4.60;99.90
3005;DHT22;1512;51.486;6.610;2023-11-22T09:38:30;4.70;99.90
3005;DHT22;1512;51.486;6.610;2023-11-22T09:42:39;4.80;99.90
3005;DHT22;1512;51.486;6.610;2023-11-22T09:46:49;4.90;99.90
3005;DHT22;1512;51.486;6.610;2023-11-22T09:51:29;5.00;99.90
3005;DHT22;1512;51.486;6.610;2023-11-22T09:55:41;5.00;99.90
3005;DHT22;1512;51.486;6.610;2023-11-22T09:59:53;5.00;99.90
3005;DHT22;1512;51.486;6.610;2023-11-22T10:04:03;5.20;99.90
3005;DHT22;1512;51.486;6.610;2023-11-22T10:08:13;5.30;99.90
3005;DHT22;1512;51.486;6.610;2023-11-22T10:16:57;5.40;99.90
3005;DHT22;1512;51.486;6.610;2023-11-22T10:20:58;5.50;99.90
3005;DHT22;1512;51.486;6.610;2023-11-22T10:25:10;5.50;99.90
3005;DHT22;1512;51.486;6.610;2023-11-22T10:29:20;5.60;99.90
3005;DHT22;1512;51.486;6.610;2023-11-22T10:33:30;5.60;99.90
3005;DHT22;1512;51.486;6.610;2023-11-22T10:37:39;5.60;8.70
3005;DHT22;1512;51.486;6.610;2023-11-22T10:41:48;5.70;1.00
3005;DHT22;1512;51.486;6.610;2023-11-22T10:45:59;5.80;50.20
3005;DHT22;1512;51.486;6.610;2023-11-22T10:50:09;5.90;99.90
3005;DHT22;1512;51.486;6.610;2023-11-22T10:54:21;6.00;99.90
3005;DHT22;1512;51.486;6.610;2023-11-22T10:58:33;6.10;99.90
3005;DHT22;1512;51.486;6.610;2023-11-22T11:02:46;6.10;1.00
3005;DHT22;1512;51.486;6.610;2023-11-22T11:06:57;6.10;1.00
3005;DHT22;1512;51.486;6.610;2023-11-22T11:11:08;6.20;1.00
3005;DHT22;1512;51.486;6.610;2023-11-22T11:15:17;6.30;1.00
3005;DHT22;1512;51.486;6.610;2023-11-22T11:19:26;6.30;1.00
3005;DHT22;1512;51.486;6.610;2023-11-22T11:23:55;6.30;1.00
3005;DHT22;1512;51.486;6.610;2023-11-22T11:28:11;6.40;1.00
3005;DHT22;1512;51.486;6.610;2023-11-22T11:32:32;6.40;1.00
3005;DHT22;1512;51.486;6.610;2023-11-22T11:36:42;6.40;1.00
3005;DHT22;1512;51.486;6.610;2023-11-22T11:40:52;6.40;1.00
3005;DHT22;1512;51.486;6.610;2023-11-22T11:45:04;6.40;1.00
3005;DHT22;1512;51.486;6.610;2023-11-22T11:49:15;6.50;1.00
3005;DHT22;1512;51.486;6.610;2023-11-22T11:53:23;6.60;1.00
3005;DHT22;1512;51.486;6.610;2023-11-22T11:57:32;6.70;1.00
3005;DHT22;1512;51.486;6.610;2023-11-22T12:01:41;6.80;1.00
3005;DHT22;1512;51.486;6.610;2023-11-22T12:05:49;6.80;1.00
3005;DHT22;1512;51.486;6.610;2023-11-22T12:09:58;6.80;1.00
3005;DHT22;1512;51.486;6.610;2023-11-22T12:14:08;6.80;1.00
3005;DHT22;1512;51.486;6.610;2023-11-22T12:18:17;6.70;1.00
3005;DHT22;1512;51.486;6.610;2023-11-22T12:22:26;6.60;1.00
3005;DHT22;1512;51.486;6.610;2023-11-22T12:26:39;6.60;1.00
3005;DHT22;1512;51.486;6.610;2023-11-22T12:30:49;6.50;1.00
3005;DHT22;1512;51.486;6.610;2023-11-22T12:34:58;6.50;1.00
3005;DHT22;1512;51.486;6.610;2023-11-22T12:39:09;6.50;1.00
3005;DHT22;1512;51.486;6.610;2023-11-22T12:43:24;6.60;1.00
3005;DHT22;1512;51.486;6.610;2023-11-22T12:47:37;6.60;1.00
3005;DHT22;1512;51.486;6.610;2023-11-22T12:51:52;6.70;1.00
3005;DHT22;1512;51.486;6.610;2023-11-22T12:56:01;6.60;1.00
3005;DHT22;1512;51.486;6.610;2023-11-22T13:00:10;6.60;1.00
3005;DHT22;1512;51.486;6.610;2023-11-22T13:04:19;6.60;1.00
3005;DHT22;1512;51.486;6.610;2023-11-22T13:08:29;6.60;1.00
3005;DHT22;1512;51.486;6.610;2023-11-22T13:12:38;6.60;1.00
3005;DHT22;1512;51.486;6.610;2023-11-22T13:16:47;6.60;1.00
3005;DHT22;1512;51.486;6.610;2023-11-22T13:20:56;6.80;1.00
3005;DHT22;1512;51.486;6.610;2023-11-22T13:25:05;6.90;1.00
3005;DHT22;1512;51.486;6.610;2023-11-22T13:29:13;7.00;1.00
3005;DHT22;1512;51.486;6.610;2023-11-22T13:33:22;7.00;1.00
3005;DHT22;1512;51.486;6.610;2023-11-22T13:37:31;7.10;1.00
3005;DHT22;1512;51.486;6.610;2023-11-22T13:41:40;7.00;1.00
3005;DHT22;1512;51.486;6.610;2023-11-22T13:45:48;6.90;1.00
3005;DHT22;1512;51.486;6.610;2023-11-22T13:49:59;6.90;1.00
3005;DHT22;1512;51.486;6.610;2023-11-22T13:54:07;6.80;1.00
3005;DHT22;1512;51.486;6.610;2023-11-22T13:58:18;6.80;1.00
3005;DHT22;1512;51.486;6.610;2023-11-22T14:02:27;6.80;1.00
3005;DHT22;1512;51.486;6.610;2023-11-22T14:06:35;6.80;1.00
3005;DHT22;1512;51.486;6.610;2023-11-22T14:10:44;6.80;1.00
3005;DHT22;1512;51.486;6.610;2023-11-22T14:14:52;6.70;1.00
3005;DHT22;1512;51.486;6.610;2023-11-22T14:19:01;6.80;1.00
3005;DHT22;1512;51.486;6.610;2023-11-22T14:23:09;6.80;1.00
3005;DHT22;1512;51.486;6.610;2023-11-22T14:27:19;6.80;1.00
3005;DHT22;1512;51.486;6.610;2023-11-22T14:31:28;6.80;1.00
3005;DHT22;1512;51.486;6.610;2023-11-22T14:35:36;6.70;1.00
3005;DHT22;1512;51.486;6.610;2023-11-22T14:39:45;6.70;1.00
3005;DHT22;1512;51.486;6.610;2023-11-22T14:43:54;6.70;1.00
3005;DHT22;1512;51.486;6.610;2023-11-22T14:48:02;6.70;1.00
3005;DHT22;1512;51.486;6.610;2023-11-22T14:52:11;6.60;1.00
3005;DHT22;1512;51.486;6.610;2023-11-22T14:56:20;6.60;1.00
3005;DHT22;1512;51.486;6.610;2023-11-22T15:00:28;6.60;1.00
3005;DHT22;1512;51.486;6.610;2023-11-22T15:04:38;6.50;1.00
3005;DHT22;1512;51.486;6.610;2023-11-22T15:08:47;6.50;1.00
3005;DHT22;1512;51.486;6.610;2023-11-22T15:12:55;6.50;1.00
3005;DHT22;1512;51.486;6.610;2023-11-22T15:17:06;6.50;1.00
3005;DHT22;1512;51.486;6.610;2023-11-22T15:21:15;6.50;1.00
3005;DHT22;1512;51.486;6.610;2023-11-22T15:25:23;6.50;1.00
3005;DHT22;1512;51.486;6.610;2023-11-22T15:29:33;6.50;1.00
3005;DHT22;1512;51.486;6.610;2023-11-22T15:33:43;6.50;1.00
3005;DHT22;1512;51.486;6.610;2023-11-22T15:37:51;6.50;1.00
3005;DHT22;1512;51.486;6.610;2023-11-22T15:42:00;6.50;1.00
3005;DHT22;1512;51.486;6.610;2023-11-22T15:46:11;6.50;1.00
3005;DHT22;1512;51.486;6.610;2023-11-22T15:50:20;6.40;1.00
3005;DHT22;1512;51.486;6.610;2023-11-22T15:54:29;6.40;1.00
3005;DHT22;1512;51.486;6.610;2023-11-22T15:58:37;6.40;1.00
3005;DHT22;1512;51.486;6.610;2023-11-22T16:02:48;6.40;1.00
3005;DHT22;1512;51.486;6.610;2023-11-22T16:06:57;6.40;1.00
3005;DHT22;1512;51.486;6.610;2023-11-22T16:11:05;6.40;1.00
3005;DHT22;1512;51.486;6.610;2023-11-22T16:15:18;6.30;1.00
3005;DHT22;1512;51.486;6.610;2023-11-22T16:19:26;6.30;1.00
3005;DHT22;1512;51.486;6.610;2023-11-22T16:23:35;6.20;1.00
3005;DHT22;1512;51.486;6.610;2023-11-22T16:27:44;6.20;1.00
3005;DHT22;1512;51.486;6.610;2023-11-22T16:31:53;6.20;1.00
3005;DHT22;1512;51.486;6.610;2023-11-22T16:36:01;6.20;1.00
3005;DHT22;1512;51.486;6.610;2023-11-22T16:40:10;6.10;1.00
3005;DHT22;1512;51.486;6.610;2023-11-22T16:44:20;6.10;1.00
3005;DHT22;1512;51.486;6.610;2023-11-22T16:48:28;6.10;1.00
3005;DHT22;1512;51.486;6.610;2023-11-22T16:52:37;6.10;1.00
3005;DHT22;1512;51.486;6.610;2023-11-22T16:56:45;6.10;1.00
3005;DHT22;1512;51.486;6.610;2023-11-22T17:00:54;6.10;1.00
3005;DHT22;1512;51.486;6.610;2023-11-22T17:05:04;6.10;1.00
3005;DHT22;1512;51.486;6.610;2023-11-22T17:09:13;6.10;1.00
3005;DHT22;1512;51.486;6.610;2023-11-22T17:13:24;6.10;10.70
3005;DHT22;1512;51.486;6.610;2023-11-22T17:17:33;6.10;25.40
3005;DHT22;1512;51.486;6.610;2023-11-22T17:21:42;6.10;99.90
3005;DHT22;1512;51.486;6.610;2023-11-22T17:25:51;6.10;99.90
3005;DHT22;1512;51.486;6.610;2023-11-22T17:29:59;6.10;99.90
3005;DHT22;1512;51.486;6.610;2023-11-22T17:34:10;6.10;99.90
3005;DHT22;1512;51.486;6.610;2023-11-22T17:38:18;6.10;99.90
3005;DHT22;1512;51.486;6.610;2023-11-22T17:42:27;6.10;99.90
3005;DHT22;1512;51.486;6.610;2023-11-22T17:46:39;6.10;99.90
3005;DHT22;1512;51.486;6.610;2023-11-22T17:50:48;6.10;99.90
3005;DHT22;1512;51.486;6.610;2023-11-22T17:54:57;6.10;1.00
3005;DHT22;1512;51.486;6.610;2023-11-22T17:59:06;6.10;1.00
3005;DHT22;1512;51.486;6.610;2023-11-22T18:03:15;6.10;1.00
3005;DHT22;1512;51.486;6.610;2023-11-22T18:07:24;6.00;1.00
3005;DHT22;1512;51.486;6.610;2023-11-22T18:11:53;6.00;1.00
3005;DHT22;1512;51.486;6.610;2023-11-22T18:16:04;6.00;1.00
3005;DHT22;1512;51.486;6.610;2023-11-22T18:20:13;6.00;1.00
3005;DHT22;1512;51.486;6.610;2023-11-22T18:24:23;6.00;1.00
3005;DHT22;1512;51.486;6.610;2023-11-22T18:28:34;6.00;1.00
3005;DHT22;1512;51.486;6.610;2023-11-22T18:32:42;5.90;1.00
3005;DHT22;1512;51.486;6.610;2023-11-22T18:36:51;6.00;1.00
3005;DHT22;1512;51.486;6.610;2023-11-22T18:41:01;6.00;24.70
3005;DHT22;1512;51.486;6.610;2023-11-22T18:45:11;6.00;1.00
3005;DHT22;1512;51.486;6.610;2023-11-22T18:49:20;6.00;1.00
3005;DHT22;1512;51.486;6.610;2023-11-22T18:53:30;6.00;99.90
3005;DHT22;1512;51.486;6.610;2023-11-22T18:57:40;6.00;99.90
3005;DHT22;1512;51.486;6.610;2023-11-22T19:01:49;5.90;99.90
3005;DHT22;1512;51.486;6.610;2023-11-22T19:06:01;5.90;99.90
3005;DHT22;1512;51.486;6.610;2023-11-22T19:10:10;5.90;99.90
3005;DHT22;1512;51.486;6.610;2023-11-22T19:14:18;5.90;99.90
3005;DHT22;1512;51.486;6.610;2023-11-22T19:18:28;5.90;99.90
3005;DHT22;1512;51.486;6.610;2023-11-22T19:22:37;5.90;99.90
3005;DHT22;1512;51.486;6.610;2023-11-22T19:26:47;5.90;99.90
3005;DHT22;1512;51.486;6.610;2023-11-22T19:31:16;5.90;99.90
3005;DHT22;1512;51.486;6.610;2023-11-22T19:35:24;5.90;99.90
3005;DHT22;1512;51.486;6.610;2023-11-22T19:39:33;5.90;99.90
3005;DHT22;1512;51.486;6.610;2023-11-22T19:43:42;6.00;99.90
3005;DHT22;1512;51.486;6.610;2023-11-22T19:48:10;6.00;99.90
3005;DHT22;1512;51.486;6.610;2023-11-22T19:52:38;6.00;99.90
3005;DHT22;1512;51.486;6.610;2023-11-22T19:56:47;5.90;99.90
3005;DHT22;1512;51.486;6.610;2023-11-22T20:00:56;6.00;99.90
3005;DHT22;1512;51.486;6.610;2023-11-22T20:05:08;6.00;99.90
3005;DHT22;1512;51.486;6.610;2023-11-22T20:09:16;6.00;99.90
3005;DHT22;1512;51.486;6.610;2023-11-22T20:13:25;6.00;99.90
3005;DHT22;1512;51.486;6.610;2023-11-22T20:17:34;5.90;99.90
3005;DHT22;1512;51.486;6.610;2023-11-22T20:21:43;5.90;99.90
3005;DHT22;1512;51.486;6.610;2023-11-22T20:25:51;5.90;99.90
3005;DHT22;1512;51.486;6.610;2023-11-22T20:30:00;5.90;99.90
3005;DHT22;1512;51.486;6.610;2023-11-22T20:34:09;5.90;99.90
3005;DHT22;1512;51.486;6.610;2023-11-22T20:38:17;5.90;99.90
3005;DHT22;1512;51.486;6.610;2023-11-22T20:42:27;5.90;99.90
3005;DHT22;1512;51.486;6.610;2023-11-22T20:46:35;5.90;1.00
3005;DHT22;1512;51.486;6.610;2023-11-22T20:50:44;5.80;99.90
3005;DHT22;1512;51.486;6.610;2023-11-22T20:54:53;5.80;1.00
3005;DHT22;1512;51.486;6.610;2023-11-22T20:59:01;5.90;1.00
3005;DHT22;1512;51.486;6.610;2023-11-22T21:03:12;5.90;99.90
3005;DHT22;1512;51.486;6.610;2023-11-22T21:07:21;5.90;99.90
3005;DHT22;1512;51.486;6.610;2023-11-22T21:11:31;5.80;99.90
3005;DHT22;1512;51.486;6.610;2023-11-22T21:15:40;5.80;99.90
3005;DHT22;1512;51.486;6.610;2023-11-22T21:19:50;5.90;99.90
3005;DHT22;1512;51.486;6.610;2023-11-22T21:23:59;5.90;99.90
3005;DHT22;1512;51.486;6.610;2023-11-22T21:28:08;5.90;99.90
3005;DHT22;1512;51.486;6.610;2023-11-22T21:32:16;6.00;99.90
3005;DHT22;1512;51.486;6.610;2023-11-22T21:36:25;6.00;99.90
3005;DHT22;1512;51.486;6.610;2023-11-22T21:40:34;6.10;99.90
3005;DHT22;1512;51.486;6.610;2023-11-22T21:44:44;6.10;99.90
3005;DHT22;1512;51.486;6.610;2023-11-22T21:48:53;6.10;99.90
3005;DHT22;1512;51.486;6.610;2023-11-22T21:53:01;6.10;99.90
3005;DHT22;1512;51.486;6.610;2023-11-22T21:57:10;6.10;99.90
3005;DHT22;1512;51.486;6.610;2023-11-22T22:01:18;6.10;99.90
3005;DHT22;1512;51.486;6.610;2023-11-22T22:05:27;6.10;99.90
3005;DHT22;1512;51.486;6.610;2023-11-22T22:09:36;6.10;99.90
3005;DHT22;1512;51.486;6.610;2023-11-22T22:13:46;6.10;99.90
3005;DHT22;1512;51.486;6.610;2023-11-22T22:17:55;6.20;99.90
3005;DHT22;1512;51.486;6.610;2023-11-22T22:22:04;6.20;99.90
3005;DHT22;1512;51.486;6.610;2023-11-22T22:26:14;6.20;99.90
3005;DHT22;1512;51.486;6.610;2023-11-22T22:30:23;6.30;99.90
3005;DHT22;1512;51.486;6.610;2023-11-22T22:34:32;6.30;99.90
3005;DHT22;1512;51.486;6.610;2023-11-22T22:38:41;6.30;99.90
3005;DHT22;1512;51.486;6.610;2023-11-22T22:42:50;6.40;99.90
3005;DHT22;1512;51.486;6.610;2023-11-22T22:46:58;6.40;99.90
3005;DHT22;1512;51.486;6.610;2023-11-22T22:51:27;6.40;99.90
3005;DHT22;1512;51.486;6.610;2023-11-22T22:55:36;6.40;99.90
3005;DHT22;1512;51.486;6.610;2023-11-22T22:59:45;6.40;99.90
3005;DHT22;1512;51.486;6.610;2023-11-22T23:03:53;6.50;99.90
3005;DHT22;1512;51.486;6.610;2023-11-22T23:08:03;6.50;99.90
3005;DHT22;1512;51.486;6.610;2023-11-22T23:12:13;6.50;99.90
3005;DHT22;1512;51.486;6.610;2023-11-22T23:16:22;6.50;99.90
3005;DHT22;1512;51.486;6.610;2023-11-22T23:20:32;6.50;99.90
3005;DHT22;1512;51.486;6.610;2023-11-22T23:24:43;6.50;99.90
3005;DHT22;1512;51.486;6.610;2023-11-22T23:29:10;6.50;99.90
3005;DHT22;1512;51.486;6.610;2023-11-22T23:33:19;6.50;99.90
3005;DHT22;1512;51.486;6.610;2023-11-22T23:37:28;6.60;99.90
3005;DHT22;1512;51.486;6.610;2023-11-22T23:41:37;6.60;99.90
3005;DHT22;1512;51.486;6.610;2023-11-22T23:45:45;6.60;1.00
3005;DHT22;1512;51.486;6.610;2023-11-22T23:49:56;6.60;1.00
3005;DHT22;1512;51.486;6.610;2023-11-22T23:54:05;6.60;1.00
3005;DHT22;1512;51.486;6.610;2023-11-22T23:58:14;6.60;1.00
